createdAt,value
2023-04-03T00:01:28.780Z,92.76
2023-04-03T00:05:26.811Z,92.84
2023-04-03T00:09:24.853Z,92.27
2023-04-03T00:13:23.787Z,92.21
2023-04-03T00:17:21.796Z,91.71
2023-04-03T00:21:20.801Z,91.65
2023-04-03T00:25:19.712Z,91.53
2023-04-03T00:29:17.814Z,91.87
2023-04-03T00:33:15.758Z,91.83
2023-04-03T00:37:13.737Z,91.78
2023-04-03T00:41:11.863Z,91.49
2023-04-03T00:45:12.716Z,91.68
2023-04-03T00:49:10.715Z,91.47
2023-04-03T00:53:08.724Z,91.54
2023-04-03T00:57:11.732Z,91.54
2023-04-03T01:01:13.725Z,91.61
2023-04-03T01:05:11.696Z,91.75
2023-04-03T01:09:10.805Z,91.86
2023-04-03T01:13:08.693Z,91.93
2023-04-03T01:17:10.633Z,91.81
2023-04-03T01:21:10.754Z,91.82
2023-04-03T01:25:08.731Z,92.31
2023-04-03T01:29:08.661Z,92.72
2023-04-03T01:33:07.787Z,92.93
2023-04-03T01:37:05.701Z,93.01
2023-04-03T01:41:04.643Z,93.00
2023-04-03T01:45:02.655Z,92.96
2023-04-03T01:49:00.638Z,93.09
2023-04-03T01:52:58.611Z,93.18
2023-04-03T01:56:56.908Z,93.13
2023-04-03T02:00:55.760Z,93.10
2023-04-03T02:04:53.648Z,93.14
2023-04-03T02:08:51.586Z,93.23
2023-04-03T02:12:49.634Z,93.18
2023-04-03T02:16:47.728Z,93.07
2023-04-03T02:20:46.696Z,92.99
2023-04-03T02:24:46.602Z,93.08
2023-04-03T02:28:44.693Z,93.21
2023-04-03T02:32:42.699Z,93.29
2023-04-03T02:36:40.634Z,93.23
2023-04-03T02:40:38.762Z,93.05
2023-04-03T02:44:36.615Z,92.99
2023-04-03T02:48:34.703Z,93.05
2023-04-03T02:52:32.535Z,93.23
2023-04-03T02:56:30.558Z,93.37
2023-04-03T03:00:28.625Z,93.48
2023-04-03T03:04:26.565Z,93.53
2023-04-03T03:08:27.659Z,93.51
2023-04-03T03:12:30.193Z,93.55
2023-04-03T03:16:29.548Z,93.59
2023-04-03T03:20:28.489Z,93.56
2023-04-03T03:24:26.506Z,93.50
2023-04-03T03:28:24.508Z,93.46
2023-04-03T03:32:22.526Z,93.35
2023-04-03T03:36:20.551Z,93.22
2023-04-03T03:40:18.541Z,92.99
2023-04-03T03:44:16.444Z,92.75
2023-04-03T03:48:14.504Z,92.52
2023-04-03T03:52:12.480Z,92.01
2023-04-03T03:56:10.460Z,90.99
2023-04-03T04:00:10.503Z,90.46
2023-04-03T04:04:11.648Z,90.51
2023-04-03T04:08:09.418Z,90.84
2023-04-03T04:12:08.426Z,90.90
2023-04-03T04:16:06.401Z,90.71
2023-04-03T04:20:04.476Z,90.67
2023-04-03T04:24:04.371Z,90.55
2023-04-03T04:28:02.435Z,90.52
2023-04-03T04:32:00.358Z,90.40
2023-04-03T04:35:59.497Z,90.06
2023-04-03T04:39:57.440Z,89.91
2023-04-03T04:43:55.407Z,89.50
2023-04-03T04:47:53.441Z,89.24
2023-04-03T04:51:52.482Z,89.13
2023-04-03T04:55:53.327Z,88.60
2023-04-03T04:59:51.368Z,88.40
2023-04-03T05:03:49.339Z,87.97
2023-04-03T05:07:48.454Z,87.24
2023-04-03T05:11:46.325Z,86.84
2023-04-03T05:15:46.375Z,86.36
2023-04-03T05:19:44.330Z,86.43
2023-04-03T05:23:42.380Z,86.00
2023-04-03T05:27:40.308Z,85.17
2023-04-03T05:31:38.477Z,84.69
2023-04-03T05:35:36.583Z,84.04
2023-04-03T05:39:36.343Z,84.29
2023-04-03T05:43:34.265Z,83.99
2023-04-03T05:47:34.361Z,84.25
2023-04-03T05:51:35.296Z,83.95
2023-04-03T05:55:39.373Z,82.98
2023-04-03T05:59:37.303Z,82.38
2023-04-03T06:03:02.219Z,82.75
2023-04-03T06:06:26.596Z,81.88
2023-04-03T06:09:52.325Z,82.19
2023-04-03T06:13:16.190Z,81.48
2023-04-03T06:16:41.362Z,81.43
2023-04-03T06:20:06.630Z,81.83
2023-04-03T06:23:31.250Z,80.60
2023-04-03T06:26:55.573Z,80.34
2023-04-03T06:30:19.517Z,80.12
2023-04-03T06:33:43.478Z,80.35
2023-04-03T06:37:07.856Z,79.55
2023-04-03T06:40:32.230Z,78.95
2023-04-03T06:43:57.568Z,79.51
2023-04-03T06:47:21.744Z,79.00
2023-04-03T06:50:45.581Z,79.39
2023-04-03T06:54:10.336Z,79.14
2023-04-03T06:57:34.538Z,78.86
2023-04-03T07:00:58.580Z,78.91
2023-04-03T07:04:22.699Z,79.41
2023-04-03T07:07:46.810Z,77.87
2023-04-03T07:11:12.649Z,77.49
2023-04-03T07:14:36.782Z,78.03
2023-04-03T07:18:00.850Z,78.63
2023-04-03T07:21:25.081Z,78.25
2023-04-03T07:24:50.564Z,77.40
2023-04-03T07:28:15.395Z,76.77
2023-04-03T07:31:42.896Z,76.43
2023-04-03T07:35:07.484Z,77.19
2023-04-03T07:38:31.449Z,75.96
2023-04-03T07:41:56.523Z,75.91
2023-04-03T07:45:20.507Z,75.75
2023-04-03T07:48:44.433Z,75.62
2023-04-03T07:52:10.134Z,74.80
2023-04-03T07:55:35.097Z,73.93
2023-04-03T07:58:59.303Z,73.97
2023-04-03T08:02:23.165Z,73.59
2023-04-03T08:05:49.841Z,71.05
2023-04-03T08:09:13.752Z,70.36
2023-04-03T08:12:37.958Z,71.12
2023-04-03T08:16:16.145Z,71.81
2023-04-03T08:19:41.641Z,71.97
2023-04-03T08:23:05.482Z,71.74
2023-04-03T08:26:29.631Z,73.01
2023-04-03T08:29:53.699Z,71.59
2023-04-03T08:33:18.077Z,71.00
2023-04-03T08:36:42.146Z,71.20
2023-04-03T08:40:12.097Z,71.71
2023-04-03T08:43:59.122Z,71.84
2023-04-03T08:48:01.729Z,68.92
2023-04-03T08:51:28.212Z,68.45
2023-04-03T08:55:02.809Z,67.55
2023-04-03T08:58:30.374Z,67.57
2023-04-03T09:01:55.590Z,66.03
2023-04-03T09:05:41.517Z,64.85
2023-04-03T09:09:47.279Z,66.24
2023-04-03T09:13:25.083Z,66.86
2023-04-03T09:16:59.012Z,66.28
2023-04-03T09:20:38.363Z,65.14
2023-04-03T09:24:06.718Z,65.48
2023-04-03T09:27:30.685Z,68.06
2023-04-03T09:30:55.107Z,66.86
2023-04-03T09:34:29.240Z,66.60
2023-04-03T09:37:58.106Z,67.88
2023-04-03T09:41:22.568Z,66.63
2023-04-03T09:45:02.692Z,65.17
2023-04-03T09:48:29.363Z,65.77
2023-04-03T09:51:54.843Z,65.61
2023-04-03T09:55:22.952Z,65.62
2023-04-03T09:58:52.647Z,65.30
2023-04-03T10:02:32.916Z,65.74
2023-04-03T10:05:58.878Z,65.48
2023-04-03T10:09:24.259Z,65.24
2023-04-03T10:12:49.181Z,65.42
2023-04-03T10:16:19.675Z,64.82
2023-04-03T10:20:18.259Z,64.45
2023-04-03T10:23:47.775Z,62.44
2023-04-03T10:27:19.235Z,62.39
2023-04-03T10:30:49.269Z,61.06
2023-04-03T10:34:26.736Z,60.45
2023-04-03T10:38:02.519Z,61.45
2023-04-03T10:41:46.389Z,62.53
2023-04-03T10:45:21.443Z,62.24
2023-04-03T10:48:56.851Z,60.80
2023-04-03T10:52:30.030Z,60.42
2023-04-03T10:55:59.661Z,59.56
2023-04-03T10:59:48.634Z,60.61
2023-04-03T11:03:31.350Z,60.52
2023-04-03T11:07:19.000Z,60.42
2023-04-03T11:10:45.115Z,61.09
2023-04-03T11:14:17.334Z,60.55
2023-04-03T11:17:52.291Z,60.19
2023-04-03T11:21:35.806Z,60.69
2023-04-03T11:25:12.558Z,61.46
2023-04-03T11:28:38.636Z,60.18
2023-04-03T11:32:02.937Z,61.63
2023-04-03T11:35:29.126Z,59.75
2023-04-03T11:38:57.798Z,60.19
2023-04-03T11:42:22.033Z,59.11
2023-04-03T11:45:56.880Z,58.25
2023-04-03T11:49:57.829Z,58.83
2023-04-03T11:53:42.715Z,57.41
2023-04-03T11:57:47.276Z,54.66
2023-04-03T12:01:13.750Z,58.47
2023-04-03T12:04:38.478Z,57.03
2023-04-03T12:08:38.343Z,59.09
2023-04-03T12:12:23.517Z,58.56
2023-04-03T12:15:58.228Z,57.55
2023-04-03T12:23:30.312Z,56.41
2023-04-03T12:27:20.414Z,57.11
2023-04-03T12:30:45.799Z,56.40
2023-04-03T12:34:43.635Z,56.02
2023-04-03T12:38:47.889Z,56.68
2023-04-03T12:42:27.987Z,57.10
2023-04-03T12:46:01.068Z,56.37
2023-04-03T12:49:31.236Z,56.65
2023-04-03T12:53:08.532Z,57.07
2023-04-03T12:56:35.267Z,58.10
2023-04-03T12:59:59.231Z,58.66
2023-04-03T13:03:28.984Z,57.24
2023-04-03T13:06:53.572Z,56.92
2023-04-03T13:10:20.974Z,56.58
2023-04-03T13:14:09.385Z,58.37
2023-04-03T13:17:33.710Z,57.87
2023-04-03T13:21:21.912Z,56.90
2023-04-03T13:24:48.585Z,57.03
2023-04-03T13:28:16.738Z,56.59
2023-04-03T13:32:00.684Z,56.16
2023-04-03T13:35:58.675Z,57.05
2023-04-03T13:39:56.661Z,56.97
2023-04-03T13:44:03.269Z,55.80
2023-04-03T13:48:16.017Z,56.76
2023-04-03T13:52:46.712Z,57.02
2023-04-03T13:56:49.616Z,57.37
2023-04-03T14:01:24.714Z,57.77
2023-04-03T14:05:25.709Z,57.07
2023-04-03T14:09:23.578Z,57.20
2023-04-03T14:13:21.588Z,55.68
2023-04-03T14:17:30.668Z,57.39
2023-04-03T14:21:30.620Z,55.11
2023-04-03T14:25:28.612Z,54.71
2023-04-03T14:29:27.569Z,54.73
2023-04-03T14:33:29.675Z,56.87
2023-04-03T14:37:31.562Z,55.41
2023-04-03T14:41:32.561Z,54.74
2023-04-03T14:45:31.650Z,51.08
2023-04-03T14:49:37.536Z,53.18
2023-04-03T14:53:39.113Z,54.65
2023-04-03T14:57:42.699Z,53.36
2023-04-03T15:01:42.685Z,53.60
2023-04-03T15:05:40.511Z,55.83
2023-04-03T15:09:40.584Z,54.47
2023-04-03T15:13:39.547Z,54.91
2023-04-03T15:17:38.646Z,56.29
2023-04-03T15:21:36.541Z,54.33
2023-04-03T15:25:34.481Z,54.33
2023-04-03T15:29:32.508Z,53.27
2023-04-03T15:33:31.452Z,52.85
2023-04-03T15:37:29.792Z,54.17
2023-04-03T15:41:27.442Z,54.17
2023-04-03T15:45:25.555Z,52.90
2023-04-03T15:49:23.537Z,55.46
2023-04-03T15:53:21.519Z,53.88
2023-04-03T15:57:19.503Z,56.85
2023-04-03T16:01:17.476Z,58.65
2023-04-03T16:05:15.466Z,59.28
2023-04-03T16:09:13.544Z,59.16
2023-04-03T16:13:11.507Z,60.16
2023-04-03T16:17:09.621Z,60.85
2023-04-03T16:21:07.380Z,60.07
2023-04-03T16:25:05.466Z,60.32
2023-04-03T16:29:03.525Z,60.67
2023-04-03T16:33:01.457Z,61.58
2023-04-03T16:36:59.534Z,62.53
2023-04-03T16:40:57.380Z,62.62
2023-04-03T16:44:55.515Z,61.85
2023-04-03T16:48:53.365Z,61.10
2023-04-03T16:52:51.339Z,61.51
2023-04-03T16:56:49.417Z,62.22
2023-04-03T17:00:47.328Z,63.23
2023-04-03T17:04:45.382Z,62.55
2023-04-03T17:08:43.465Z,62.68
2023-04-03T17:12:54.400Z,62.86
2023-04-03T17:16:53.374Z,63.55
2023-04-03T17:20:51.387Z,63.24
2023-04-03T17:24:49.366Z,63.28
2023-04-03T17:28:48.379Z,63.79
2023-04-03T17:32:47.495Z,64.12
2023-04-03T17:36:46.379Z,64.22
2023-04-03T17:40:45.122Z,64.06
2023-04-03T17:44:43.344Z,64.18
2023-04-03T17:48:41.292Z,64.52
2023-04-03T17:52:40.341Z,64.61
2023-04-03T17:56:40.284Z,64.46
2023-04-03T18:00:38.648Z,64.27
2023-04-03T18:04:37.299Z,64.58
2023-04-03T18:08:37.404Z,63.42
2023-04-03T18:12:35.250Z,63.77
2023-04-03T18:16:33.348Z,63.81
2023-04-03T18:20:31.338Z,64.14
2023-04-03T18:24:33.486Z,64.32
2023-04-03T18:28:31.255Z,65.20
2023-04-03T18:32:32.300Z,64.72
2023-04-03T18:36:30.235Z,64.49
2023-04-03T18:40:28.246Z,64.35
2023-04-03T18:44:30.225Z,64.63
2023-04-03T18:48:30.060Z,64.52
2023-04-03T18:52:31.224Z,64.37
2023-04-03T18:56:29.240Z,64.80
2023-04-03T19:00:30.204Z,64.59
2023-04-03T19:04:29.316Z,64.77
2023-04-03T19:08:28.179Z,64.98
2023-04-03T19:12:26.315Z,63.80
2023-04-03T19:16:24.374Z,64.72
2023-04-03T19:20:24.299Z,64.29
2023-04-03T19:24:28.188Z,64.10
2023-04-03T19:28:26.547Z,63.87
2023-04-03T19:32:24.223Z,65.04
2023-04-03T19:36:23.234Z,64.81
2023-04-03T19:40:22.154Z,65.52
2023-04-03T19:44:21.169Z,65.22
2023-04-03T19:48:20.130Z,65.20
2023-04-03T19:52:18.518Z,65.48
2023-04-03T19:56:16.131Z,65.93
2023-04-03T20:00:14.282Z,66.32
2023-04-03T20:04:12.163Z,66.66
2023-04-03T20:08:11.190Z,66.75
2023-04-03T20:12:10.094Z,66.19
2023-04-03T20:16:08.298Z,66.11
2023-04-03T20:20:08.134Z,65.61
2023-04-03T20:24:06.193Z,66.32
2023-04-03T20:28:04.059Z,65.80
2023-04-03T20:32:02.186Z,65.85
2023-04-03T20:36:01.201Z,66.20
2023-04-03T20:39:59.125Z,66.04
2023-04-03T20:43:58.051Z,66.40
2023-04-03T20:47:56.199Z,66.85
2023-04-03T20:51:54.247Z,66.75
2023-04-03T20:55:55.092Z,66.10
2023-04-03T20:59:53.019Z,66.22
2023-04-03T21:03:53.128Z,66.50
2023-04-03T21:08:29.074Z,66.44
2023-04-03T21:13:05.029Z,67.70
2023-04-03T21:17:03.104Z,66.58
2023-04-03T21:21:02.111Z,67.08
2023-04-03T21:25:00.029Z,66.89
2023-04-03T21:28:58.164Z,67.17
2023-04-03T21:32:56.012Z,67.38
2023-04-03T21:36:58.070Z,67.84
2023-04-03T21:40:56.981Z,67.93
2023-04-03T21:44:55.004Z,68.65
2023-04-03T21:48:54.003Z,67.95
2023-04-03T21:52:52.083Z,68.05
2023-04-03T21:56:49.977Z,68.21
2023-04-03T22:00:49.131Z,68.42
2023-04-03T22:04:47.010Z,68.01
2023-04-03T22:08:44.942Z,68.74
2023-04-03T22:12:43.928Z,68.65
2023-04-03T22:16:42.926Z,69.18
2023-04-03T22:20:41.027Z,68.28
2023-04-03T22:24:38.908Z,69.15
2023-04-03T22:28:37.909Z,69.18
2023-04-03T22:32:35.897Z,69.55
2023-04-03T22:36:33.858Z,70.29
2023-04-03T22:40:31.888Z,69.43
2023-04-03T22:44:36.092Z,69.80
2023-04-03T22:48:34.942Z,69.78
2023-04-03T22:52:32.851Z,70.45
2023-04-03T22:56:31.020Z,70.76
2023-04-03T23:00:29.939Z,71.08
2023-04-03T23:04:28.006Z,71.66
2023-04-03T23:08:25.877Z,73.41
2023-04-03T23:12:23.977Z,75.25
2023-04-03T23:16:21.957Z,76.39
2023-04-03T23:20:20.938Z,74.70
2023-04-03T23:24:18.912Z,74.20
2023-04-03T23:28:16.881Z,72.96
2023-04-03T23:32:14.826Z,73.25
2023-04-03T23:36:12.868Z,73.46
2023-04-03T23:40:10.784Z,73.17
2023-04-03T23:44:08.758Z,73.46
2023-04-03T23:48:06.755Z,73.92
2023-04-03T23:52:04.803Z,73.93
2023-04-03T23:56:02.839Z,74.19
